createdAt,value
2024-03-26T00:00:33.983Z,0.66
2024-03-26T00:01:34.027Z,0.67
2024-03-26T00:02:34.112Z,0.67
2024-03-26T00:03:34.111Z,0.66
2024-03-26T00:04:34.123Z,0.67
2024-03-26T00:05:34.173Z,0.65
2024-03-26T00:06:34.182Z,0.66
2024-03-26T00:07:34.245Z,0.68
2024-03-26T00:08:34.290Z,0.68
2024-03-26T00:09:34.355Z,0.68
2024-03-26T00:10:34.421Z,0.68
2024-03-26T00:11:34.417Z,0.67
2024-03-26T00:12:34.483Z,0.67
2024-03-26T00:13:34.488Z,0.68
2024-03-26T00:14:34.531Z,0.67
2024-03-26T00:15:34.609Z,0.69
2024-03-26T00:16:34.654Z,0.69
2024-03-26T00:17:34.763Z,0.69
2024-03-26T00:18:34.771Z,0.70
2024-03-26T00:19:34.780Z,0.68
2024-03-26T00:20:34.855Z,0.70
2024-03-26T00:21:34.885Z,0.69
2024-03-26T00:22:34.963Z,0.70
2024-03-26T00:23:34.981Z,0.68
2024-03-26T00:24:35.018Z,0.70
2024-03-26T00:25:35.082Z,0.70
2024-03-26T00:26:35.092Z,0.70
2024-03-26T00:27:35.092Z,0.71
2024-03-26T00:28:35.215Z,0.70
2024-03-26T00:29:35.238Z,0.69
2024-03-26T00:30:35.270Z,0.70
2024-03-26T00:31:35.376Z,0.71
2024-03-26T00:32:35.340Z,0.70
2024-03-26T00:33:35.351Z,0.71
2024-03-26T00:34:35.394Z,0.71
2024-03-26T00:35:35.464Z,0.71
2024-03-26T00:36:35.472Z,0.72
2024-03-26T00:37:35.489Z,0.70
2024-03-26T00:38:35.536Z,0.73
2024-03-26T00:39:35.586Z,0.72
2024-03-26T00:40:35.637Z,0.71
2024-03-26T00:41:35.679Z,0.71
2024-03-26T00:42:35.709Z,0.72
2024-03-26T00:43:35.721Z,0.72
2024-03-26T00:44:35.759Z,0.72
2024-03-26T00:45:35.845Z,0.72
2024-03-26T00:46:35.892Z,0.72
2024-03-26T00:47:35.899Z,0.72
2024-03-26T00:48:35.953Z,0.72
2024-03-26T00:49:36.193Z,0.73
2024-03-26T00:50:36.041Z,0.72
2024-03-26T00:51:36.084Z,0.71
2024-03-26T00:52:36.160Z,0.72
2024-03-26T00:53:36.196Z,0.72
2024-03-26T00:54:36.245Z,0.72
2024-03-26T00:55:36.357Z,0.72
2024-03-26T00:56:36.351Z,0.73
2024-03-26T00:57:36.374Z,0.73
2024-03-26T00:58:36.434Z,0.72
2024-03-26T00:59:36.440Z,0.72
2024-03-26T01:00:36.511Z,0.72
2024-03-26T01:01:36.509Z,0.72
2024-03-26T01:02:36.572Z,0.73
2024-03-26T01:03:36.616Z,0.73
2024-03-26T01:04:36.693Z,0.74
2024-03-26T01:05:36.697Z,0.73
2024-03-26T01:06:36.799Z,0.74
2024-03-26T01:07:36.811Z,0.72
2024-03-26T01:08:36.850Z,0.72
2024-03-26T01:09:36.894Z,0.73
2024-03-26T01:10:36.968Z,0.72
2024-03-26T01:11:36.975Z,0.74
2024-03-26T01:12:37.015Z,0.72
2024-03-26T01:13:37.167Z,0.74
2024-03-26T01:14:37.104Z,0.72
2024-03-26T01:15:37.135Z,0.71
2024-03-26T01:16:37.224Z,0.73
2024-03-26T01:17:37.292Z,0.73
2024-03-26T01:18:37.307Z,0.73
2024-03-26T01:19:37.297Z,0.75
2024-03-26T01:20:37.329Z,0.73
2024-03-26T01:21:37.365Z,0.73
2024-03-26T01:22:37.419Z,0.73
2024-03-26T01:23:37.427Z,0.73
2024-03-26T01:24:37.479Z,0.74
2024-03-26T01:25:37.481Z,0.73
2024-03-26T01:26:37.515Z,0.73
2024-03-26T01:27:37.596Z,0.73
2024-03-26T01:28:37.607Z,0.74
2024-03-26T01:29:37.685Z,0.74
2024-03-26T01:30:37.688Z,0.72
2024-03-26T01:31:37.690Z,0.74
2024-03-26T01:32:37.716Z,0.75
2024-03-26T01:33:37.803Z,0.73
2024-03-26T01:34:37.823Z,0.73
2024-03-26T01:35:37.854Z,0.74
2024-03-26T01:36:37.864Z,0.72
2024-03-26T01:37:37.888Z,0.74
2024-03-26T01:38:37.987Z,0.73
2024-03-26T01:39:37.988Z,0.75
2024-03-26T01:40:38.024Z,0.74
2024-03-26T01:41:38.056Z,0.75
2024-03-26T01:42:38.195Z,0.74
2024-03-26T01:43:38.167Z,0.73
2024-03-26T01:44:38.224Z,0.74
2024-03-26T01:45:38.237Z,0.73
2024-03-26T01:46:38.295Z,0.72
2024-03-26T01:47:38.249Z,0.73
2024-03-26T01:48:38.298Z,0.74
2024-03-26T01:49:38.321Z,0.73
2024-03-26T01:50:38.339Z,0.74
2024-03-26T01:51:38.340Z,0.72
2024-03-26T01:52:38.386Z,0.74
2024-03-26T01:53:38.390Z,0.74
2024-03-26T01:54:38.399Z,0.74
2024-03-26T01:55:38.419Z,0.75
2024-03-26T01:56:38.473Z,0.72
2024-03-26T01:57:38.478Z,0.73
2024-03-26T01:58:38.494Z,0.74
2024-03-26T01:59:38.491Z,0.75
2024-03-26T02:00:38.507Z,0.75
2024-03-26T02:01:38.502Z,0.74
2024-03-26T02:02:38.544Z,0.74
2024-03-26T02:03:38.565Z,0.75
2024-03-26T02:04:38.526Z,0.73
2024-03-26T02:05:38.532Z,0.73
2024-03-26T02:06:38.582Z,0.74
2024-03-26T02:07:38.589Z,0.74
2024-03-26T02:08:38.599Z,0.76
2024-03-26T02:09:38.598Z,0.73
2024-03-26T02:10:38.620Z,0.76
2024-03-26T02:11:38.622Z,0.74
2024-03-26T02:12:38.677Z,0.74
2024-03-26T02:13:38.691Z,0.74
2024-03-26T02:14:38.698Z,0.73
2024-03-26T02:15:38.699Z,0.76
2024-03-26T02:16:38.715Z,0.74
2024-03-26T02:17:38.719Z,0.74
2024-03-26T02:18:38.726Z,0.74
2024-03-26T02:19:38.776Z,0.75
2024-03-26T02:20:38.782Z,0.74
2024-03-26T02:21:38.842Z,0.75
2024-03-26T02:22:38.857Z,0.73
2024-03-26T02:23:38.822Z,0.73
2024-03-26T02:24:38.822Z,0.74
2024-03-26T02:25:38.875Z,0.75
2024-03-26T02:26:38.876Z,0.75
2024-03-26T02:27:38.895Z,0.74
2024-03-26T02:28:38.939Z,0.73
2024-03-26T02:29:38.952Z,0.76
2024-03-26T02:30:38.947Z,0.73
2024-03-26T02:31:39.024Z,0.74
2024-03-26T02:32:39.482Z,0.75
2024-03-26T02:33:39.033Z,0.76
2024-03-26T02:34:39.045Z,0.75
2024-03-26T02:35:39.075Z,0.73
2024-03-26T02:36:39.013Z,0.74
2024-03-26T02:37:39.100Z,0.74
2024-03-26T02:38:39.111Z,0.75
2024-03-26T02:39:39.099Z,0.74
2024-03-26T02:40:39.084Z,0.74
2024-03-26T02:41:39.084Z,0.74
2024-03-26T02:42:39.121Z,0.73
2024-03-26T02:43:39.121Z,0.74
2024-03-26T02:44:39.160Z,0.74
2024-03-26T02:45:39.148Z,0.74
2024-03-26T02:46:39.161Z,0.74
2024-03-26T02:47:39.154Z,0.74
2024-03-26T02:48:39.184Z,0.75
2024-03-26T02:49:39.186Z,0.75
2024-03-26T02:50:39.200Z,0.74
2024-03-26T02:51:39.265Z,0.74
2024-03-26T02:52:39.189Z,0.74
2024-03-26T02:53:39.213Z,0.73
2024-03-26T02:54:39.222Z,0.74
2024-03-26T02:55:39.226Z,0.75
2024-03-26T02:56:39.321Z,0.77
2024-03-26T02:57:39.239Z,0.74
2024-03-26T02:58:39.246Z,0.75
2024-03-26T02:59:39.252Z,0.74
2024-03-26T03:00:39.243Z,0.74
2024-03-26T03:01:39.280Z,0.74
2024-03-26T03:02:39.274Z,0.75
2024-03-26T03:03:39.286Z,0.73
2024-03-26T03:04:39.286Z,0.74
2024-03-26T03:05:39.299Z,0.74
2024-03-26T03:06:39.358Z,0.75
2024-03-26T03:07:39.315Z,0.75
2024-03-26T03:08:39.316Z,0.73
2024-03-26T03:09:39.331Z,0.74
2024-03-26T03:10:39.339Z,0.75
2024-03-26T03:11:39.350Z,0.75
2024-03-26T03:12:39.350Z,0.74
2024-03-26T03:13:39.351Z,0.74
2024-03-26T03:14:39.362Z,0.75
2024-03-26T03:15:39.426Z,0.74
2024-03-26T03:16:39.366Z,0.74
2024-03-26T03:17:39.361Z,0.74
2024-03-26T03:18:39.383Z,0.74
2024-03-26T03:19:39.385Z,0.76
2024-03-26T03:20:39.397Z,0.74
2024-03-26T03:21:39.396Z,0.74
2024-03-26T03:22:39.422Z,0.75
2024-03-26T03:23:39.421Z,0.76
2024-03-26T03:24:39.429Z,0.74
2024-03-26T03:25:39.429Z,0.77
2024-03-26T03:26:39.449Z,0.75
2024-03-26T03:27:39.432Z,0.75
2024-03-26T03:28:39.446Z,0.74
2024-03-26T03:29:39.443Z,0.76
2024-03-26T03:30:39.473Z,0.75
2024-03-26T03:31:39.464Z,0.74
2024-03-26T03:32:39.477Z,0.76
2024-03-26T03:33:39.487Z,0.76
2024-03-26T03:34:39.493Z,0.77
2024-03-26T03:35:39.481Z,0.74
2024-03-26T03:36:39.481Z,0.74
2024-03-26T03:37:39.489Z,0.74
2024-03-26T03:38:39.472Z,0.74
2024-03-26T03:39:39.533Z,0.74
2024-03-26T03:40:39.569Z,0.74
2024-03-26T03:41:39.515Z,0.75
2024-03-26T03:42:39.554Z,0.76
2024-03-26T03:43:39.519Z,0.76
2024-03-26T03:44:39.538Z,0.74
2024-03-26T03:45:39.535Z,0.76
2024-03-26T03:46:39.509Z,0.75
2024-03-26T03:47:39.513Z,0.74
2024-03-26T03:48:39.547Z,0.75
2024-03-26T03:49:39.615Z,0.74
2024-03-26T03:50:39.581Z,0.76
2024-03-26T03:51:39.587Z,0.76
2024-03-26T03:52:39.574Z,0.75
2024-03-26T03:53:39.577Z,0.76
2024-03-26T03:54:39.584Z,0.75
2024-03-26T03:55:39.595Z,0.75
2024-03-26T03:56:39.708Z,0.75
2024-03-26T03:57:39.614Z,0.75
2024-03-26T03:58:39.608Z,0.76
2024-03-26T03:59:39.674Z,0.77
2024-03-26T04:00:39.634Z,0.75
2024-03-26T04:01:39.625Z,0.77
2024-03-26T04:02:39.681Z,0.77
2024-03-26T04:03:39.702Z,0.76
2024-03-26T04:04:39.698Z,0.74
2024-03-26T04:05:39.711Z,0.76
2024-03-26T04:06:39.688Z,0.76
2024-03-26T04:07:39.794Z,0.74
2024-03-26T04:08:39.730Z,0.74
2024-03-26T04:09:39.726Z,0.77
2024-03-26T04:10:39.748Z,0.75
2024-03-26T04:11:39.756Z,0.75
2024-03-26T04:12:39.814Z,0.75
2024-03-26T04:13:39.787Z,0.77
2024-03-26T04:14:39.835Z,0.77
2024-03-26T04:15:41.454Z,0.75
2024-03-26T04:16:39.869Z,0.75
2024-03-26T04:17:39.847Z,0.74
2024-03-26T04:18:39.862Z,0.76
2024-03-26T04:19:39.841Z,0.75
2024-03-26T04:20:39.864Z,0.76
2024-03-26T04:21:39.877Z,0.75
2024-03-26T04:22:39.890Z,0.76
2024-03-26T04:23:39.936Z,0.76
2024-03-26T04:24:39.940Z,0.74
2024-03-26T04:25:39.953Z,0.77
2024-03-26T04:26:39.954Z,0.74
2024-03-26T04:27:39.981Z,0.74
2024-03-26T04:28:40.000Z,0.76
2024-03-26T04:29:39.976Z,0.75
2024-03-26T04:30:39.982Z,0.77
2024-03-26T04:31:40.000Z,0.75
2024-03-26T04:32:40.010Z,0.74
2024-03-26T04:33:40.081Z,0.74
2024-03-26T04:34:40.001Z,0.75
2024-03-26T04:35:40.051Z,0.75
2024-03-26T04:36:40.037Z,0.75
2024-03-26T04:37:40.044Z,0.75
2024-03-26T04:38:40.105Z,0.74
2024-03-26T04:39:40.055Z,0.74
2024-03-26T04:40:40.103Z,0.76
2024-03-26T04:41:47.428Z,0.50
2024-03-26T04:42:47.410Z,0.50
2024-03-26T04:44:10.947Z,0.50
2024-03-26T04:45:10.938Z,0.50
2024-03-26T04:46:10.907Z,0.50
2024-03-26T04:47:10.917Z,0.50
2024-03-26T04:48:10.914Z,0.50
2024-03-26T04:49:10.921Z,0.50
2024-03-26T04:50:10.934Z,0.51
2024-03-26T04:51:10.944Z,0.50
2024-03-26T04:52:10.951Z,0.50
2024-03-26T04:53:10.927Z,0.51
2024-03-26T04:54:10.929Z,0.52
2024-03-26T04:55:10.925Z,0.51
2024-03-26T04:56:10.924Z,0.51
2024-03-26T04:57:10.935Z,0.50
2024-03-26T04:58:10.918Z,0.52
2024-03-26T04:59:10.961Z,0.52
2024-03-26T05:00:10.928Z,0.51
2024-03-26T05:01:10.957Z,0.51
2024-03-26T05:02:10.977Z,0.52
2024-03-26T05:03:10.958Z,0.51
2024-03-26T05:04:10.920Z,0.52
2024-03-26T05:05:10.930Z,0.52
2024-03-26T05:06:10.942Z,0.51
2024-03-26T05:07:10.942Z,0.51
2024-03-26T05:08:10.983Z,0.50
2024-03-26T05:09:10.961Z,0.50
2024-03-26T05:10:10.946Z,0.50
2024-03-26T05:11:10.981Z,0.51
2024-03-26T05:12:10.932Z,0.50
2024-03-26T05:13:10.960Z,0.50
2024-03-26T05:14:10.973Z,0.50
2024-03-26T05:15:10.964Z,0.50
2024-03-26T05:16:10.970Z,0.51
2024-03-26T05:17:10.948Z,0.50
2024-03-26T05:18:11.047Z,0.51
2024-03-26T05:19:10.989Z,0.51
2024-03-26T05:20:10.988Z,0.51
2024-03-26T05:21:10.994Z,0.51
2024-03-26T05:22:10.954Z,0.50
2024-03-26T05:23:10.967Z,0.50
2024-03-26T05:24:10.966Z,0.50
2024-03-26T05:25:10.965Z,0.50
2024-03-26T05:26:10.985Z,0.51
2024-03-26T05:27:11.091Z,0.50
2024-03-26T05:28:10.988Z,0.50
2024-03-26T05:29:11.002Z,0.51
2024-03-26T05:30:10.963Z,0.51
2024-03-26T05:31:10.986Z,0.50
2024-03-26T05:32:50.368Z,0.50
2024-03-26T05:33:50.339Z,0.50
2024-03-26T05:34:50.352Z,0.50
2024-03-26T05:35:50.449Z,0.50
2024-03-26T05:36:50.374Z,0.50
2024-03-26T05:37:50.373Z,0.51
2024-03-26T05:38:50.395Z,0.51
2024-03-26T05:39:50.379Z,0.53
2024-03-26T05:40:50.356Z,0.51
2024-03-26T05:41:50.354Z,0.52
2024-03-26T05:42:50.408Z,0.52
2024-03-26T05:43:50.362Z,0.52
2024-03-26T05:44:50.405Z,0.52
2024-03-26T05:45:50.360Z,0.53
2024-03-26T05:46:50.357Z,0.53
2024-03-26T05:47:50.383Z,0.53
2024-03-26T05:48:50.356Z,0.54
2024-03-26T05:49:50.468Z,0.55
2024-03-26T05:50:50.377Z,0.54
2024-03-26T05:51:50.396Z,0.54
2024-03-26T05:52:50.371Z,0.55
2024-03-26T05:53:50.349Z,0.56
2024-03-26T05:54:50.396Z,0.58
2024-03-26T05:55:50.364Z,0.57
2024-03-26T05:56:50.380Z,0.56
2024-03-26T05:57:50.515Z,0.59
2024-03-26T05:58:50.376Z,0.57
2024-03-26T05:59:50.385Z,0.58
2024-03-26T06:00:50.386Z,0.58
2024-03-26T06:01:50.422Z,0.60
2024-03-26T06:02:50.429Z,0.60
2024-03-26T06:03:50.394Z,0.60
2024-03-26T06:04:50.410Z,0.60
2024-03-26T06:05:50.374Z,0.60
2024-03-26T06:06:50.387Z,0.60
2024-03-26T06:07:50.375Z,0.61
2024-03-26T06:08:50.400Z,0.63
2024-03-26T06:09:50.415Z,0.62
2024-03-26T06:10:50.393Z,0.63
2024-03-26T06:11:50.423Z,0.62
2024-03-26T06:12:50.404Z,0.64
2024-03-26T06:13:50.375Z,0.63
2024-03-26T06:14:50.415Z,0.64
2024-03-26T06:15:50.387Z,0.64
2024-03-26T06:16:50.408Z,0.65
2024-03-26T06:17:50.411Z,0.65
2024-03-26T06:18:50.444Z,0.64
2024-03-26T06:19:50.383Z,0.64
2024-03-26T06:20:50.421Z,0.67
2024-03-26T06:21:50.398Z,0.65
2024-03-26T06:22:50.479Z,0.66
2024-03-26T06:23:50.521Z,0.66
2024-03-26T06:24:50.457Z,0.66
2024-03-26T06:25:50.426Z,0.67
2024-03-26T06:26:50.416Z,0.66
2024-03-26T06:27:50.410Z,0.65
2024-03-26T06:28:50.418Z,0.68
2024-03-26T06:29:50.428Z,0.67
2024-03-26T06:30:50.427Z,0.68
2024-03-26T06:31:50.395Z,0.68
2024-03-26T06:32:50.441Z,0.68
2024-03-26T06:33:50.571Z,0.69
2024-03-26T06:34:50.459Z,0.69
2024-03-26T06:35:50.425Z,0.69
2024-03-26T06:36:50.418Z,0.69
2024-03-26T06:37:50.429Z,0.70
2024-03-26T06:38:50.525Z,0.70
2024-03-26T06:39:50.420Z,0.69
2024-03-26T06:40:50.438Z,0.70
2024-03-26T06:41:50.476Z,0.69
2024-03-26T06:42:50.466Z,0.70
2024-03-26T06:43:50.578Z,0.70
2024-03-26T06:44:50.413Z,0.70
2024-03-26T06:45:50.431Z,0.70
2024-03-26T06:46:50.463Z,0.70
2024-03-26T06:47:50.566Z,0.70
2024-03-26T06:48:50.442Z,0.70
2024-03-26T06:49:50.516Z,0.72
2024-03-26T06:50:50.464Z,0.71
2024-03-26T06:51:50.475Z,0.71
2024-03-26T06:52:50.475Z,0.72
2024-03-26T06:53:50.502Z,0.72
2024-03-26T06:54:50.510Z,0.70
2024-03-26T06:55:50.499Z,0.71
2024-03-26T06:56:50.640Z,0.72
2024-03-26T06:57:50.484Z,0.71
2024-03-26T06:58:50.521Z,0.71
2024-03-26T06:59:50.527Z,0.73
2024-03-26T07:00:50.599Z,0.72
2024-03-26T07:01:50.545Z,0.74
2024-03-26T07:02:50.565Z,0.73
2024-03-26T07:03:50.577Z,0.73
2024-03-26T07:04:50.522Z,0.73
2024-03-26T07:05:50.596Z,0.73
2024-03-26T07:06:50.551Z,0.72
2024-03-26T07:07:50.545Z,0.73
2024-03-26T07:08:50.600Z,0.73
2024-03-26T07:09:50.595Z,0.74
2024-03-26T07:10:50.603Z,0.74
2024-03-26T07:11:50.614Z,0.74
2024-03-26T07:12:50.572Z,0.75
2024-03-26T07:13:50.586Z,0.74
2024-03-26T07:14:50.634Z,0.73
2024-03-26T07:15:50.602Z,0.74
2024-03-26T07:16:50.612Z,0.73
2024-03-26T07:17:50.712Z,0.74
2024-03-26T07:18:52.331Z,0.75
2024-03-26T07:19:50.670Z,0.75
2024-03-26T07:20:50.632Z,0.75
2024-03-26T07:21:50.676Z,0.76
2024-03-26T07:22:50.640Z,0.75
2024-03-26T07:23:50.762Z,0.75
2024-03-26T07:24:50.718Z,0.74
2024-03-26T07:25:50.774Z,0.75
2024-03-26T07:26:50.711Z,0.75
2024-03-26T07:27:50.741Z,0.75
2024-03-26T07:28:50.833Z,0.75
2024-03-26T07:29:50.745Z,0.76
2024-03-26T07:30:50.760Z,0.74
2024-03-26T07:31:50.766Z,0.76
2024-03-26T07:32:50.809Z,0.77
2024-03-26T07:33:50.760Z,0.76
2024-03-26T07:34:50.780Z,0.76
2024-03-26T07:35:50.772Z,0.76
2024-03-26T07:36:50.770Z,0.77
2024-03-26T07:37:50.842Z,0.76
2024-03-26T07:38:50.857Z,0.76
2024-03-26T07:39:50.921Z,0.77
2024-03-26T07:40:50.886Z,0.76
2024-03-26T07:41:51.003Z,0.77
2024-03-26T07:42:50.965Z,0.76
2024-03-26T07:43:50.952Z,0.77
2024-03-26T07:44:50.928Z,0.77
2024-03-26T07:45:50.960Z,0.78
2024-03-26T07:46:51.017Z,0.77
2024-03-26T07:47:51.023Z,0.77
2024-03-26T07:48:51.039Z,0.77
2024-03-26T07:49:51.096Z,0.77
2024-03-26T07:50:51.069Z,0.78
2024-03-26T07:51:52.492Z,0.76
2024-03-26T07:52:51.085Z,0.77
2024-03-26T07:53:51.137Z,0.79
2024-03-26T07:54:51.162Z,0.77
2024-03-26T07:55:51.195Z,0.80
2024-03-26T07:56:51.257Z,0.79
2024-03-26T07:57:51.299Z,0.80
2024-03-26T07:58:51.438Z,0.79
2024-03-26T07:59:51.314Z,0.79
2024-03-26T08:00:51.354Z,0.78
2024-03-26T08:01:51.544Z,0.79
2024-03-26T08:02:51.502Z,0.80
2024-03-26T08:03:51.535Z,0.78
2024-03-26T08:04:51.526Z,0.80
2024-03-26T08:05:51.578Z,0.78
2024-03-26T08:06:51.582Z,0.78
2024-03-26T08:07:51.771Z,0.79
2024-03-26T08:08:51.710Z,0.79
2024-03-26T08:09:51.723Z,0.80
2024-03-26T08:10:51.727Z,0.78
2024-03-26T08:11:51.826Z,0.79
2024-03-26T08:12:51.763Z,0.80
2024-03-26T08:13:51.806Z,0.79
2024-03-26T08:14:51.884Z,0.82
2024-03-26T08:15:51.834Z,0.79
2024-03-26T08:16:51.896Z,0.81
2024-03-26T08:17:51.887Z,0.79
2024-03-26T08:18:51.916Z,0.80
2024-03-26T08:19:51.976Z,0.78
2024-03-26T08:20:52.006Z,0.81
2024-03-26T08:21:52.066Z,0.80
2024-03-26T08:22:52.064Z,0.81
2024-03-26T08:23:52.075Z,0.82
2024-03-26T08:24:52.874Z,0.81
2024-03-26T08:25:52.177Z,0.82
2024-03-26T08:26:52.174Z,0.81
2024-03-26T08:27:52.259Z,0.81
2024-03-26T08:28:52.236Z,0.80
2024-03-26T08:29:52.310Z,0.80
2024-03-26T08:30:52.282Z,0.80
2024-03-26T08:31:52.341Z,0.81
2024-03-26T08:32:52.410Z,0.81
2024-03-26T08:33:52.410Z,0.82
2024-03-26T08:34:52.422Z,0.79
2024-03-26T08:35:52.468Z,0.81
2024-03-26T08:36:52.537Z,0.82
2024-03-26T08:37:52.748Z,0.82
2024-03-26T08:38:52.672Z,0.83
2024-03-26T08:39:52.701Z,0.82
2024-03-26T08:40:52.763Z,0.82
2024-03-26T08:41:52.777Z,0.82
2024-03-26T08:42:52.958Z,0.81
2024-03-26T08:43:52.942Z,0.83
2024-03-26T08:44:53.003Z,0.83
2024-03-26T08:45:53.014Z,0.83
2024-03-26T08:46:53.053Z,0.79
2024-03-26T08:47:53.258Z,0.82
2024-03-26T08:48:53.238Z,0.81
2024-03-26T08:49:53.440Z,0.81
2024-03-26T08:50:53.313Z,0.83
2024-03-26T08:51:53.402Z,0.84
2024-03-26T08:52:53.479Z,0.85
2024-03-26T08:53:53.518Z,0.84
2024-03-26T08:54:53.675Z,0.82
2024-03-26T08:55:54.412Z,0.82
2024-03-26T08:56:53.760Z,0.83
2024-03-26T08:57:53.801Z,0.83
2024-03-26T08:58:53.926Z,0.84
2024-03-26T08:59:54.016Z,0.84
2024-03-26T09:00:54.039Z,0.83
2024-03-26T09:01:54.084Z,0.83
2024-03-26T09:02:54.191Z,0.83
2024-03-26T09:03:54.306Z,0.86
2024-03-26T09:04:54.285Z,0.85
2024-03-26T09:05:54.388Z,0.83
2024-03-26T09:06:54.379Z,0.85
2024-03-26T09:07:54.496Z,0.84
2024-03-26T09:08:54.558Z,0.84
2024-03-26T09:09:54.604Z,0.83
2024-03-26T09:10:54.715Z,0.81
2024-03-26T09:11:54.792Z,0.84
2024-03-26T09:12:54.824Z,0.83
2024-03-26T09:13:54.888Z,0.84
2024-03-26T09:14:54.968Z,0.83
2024-03-26T09:15:55.062Z,0.83
2024-03-26T09:16:55.088Z,0.85
2024-03-26T09:17:55.184Z,0.82
2024-03-26T09:19:00.457Z,0.82
2024-03-26T09:19:56.217Z,0.82
2024-03-26T09:20:55.255Z,0.81
2024-03-26T09:21:55.274Z,0.79
2024-03-26T09:22:55.215Z,0.80
2024-03-26T09:23:55.243Z,0.77
2024-03-26T09:24:55.224Z,0.77
2024-03-26T09:25:55.233Z,0.77
2024-03-26T09:26:55.257Z,0.76
2024-03-26T09:27:55.252Z,0.75
2024-03-26T09:28:55.301Z,0.75
2024-03-26T09:29:55.367Z,0.75
2024-03-26T09:30:55.841Z,0.74
2024-03-26T09:31:55.489Z,0.74
2024-03-26T09:32:55.554Z,0.73
2024-03-26T09:33:55.598Z,0.73
2024-03-26T09:34:55.647Z,0.72
2024-03-26T09:35:55.723Z,0.72
2024-03-26T09:36:55.821Z,0.71
2024-03-26T09:37:55.872Z,0.72
2024-03-26T09:39:06.567Z,0.71
2024-03-26T09:39:56.912Z,0.71
2024-03-26T09:40:55.940Z,0.71
2024-03-26T09:41:55.901Z,0.69
2024-03-26T09:42:55.900Z,0.69
2024-03-26T09:43:55.911Z,0.70
2024-03-26T09:45:05.257Z,0.67
2024-03-26T09:45:56.910Z,0.67
2024-03-26T09:46:55.936Z,0.67
2024-03-26T09:47:55.961Z,0.67
2024-03-26T09:48:55.948Z,0.67
2024-03-26T09:49:55.907Z,0.66
2024-03-26T09:50:55.963Z,0.66
2024-03-26T09:51:55.914Z,0.66
2024-03-26T09:52:55.939Z,0.65
2024-03-26T09:53:55.944Z,0.66
2024-03-26T09:54:55.937Z,0.66
2024-03-26T09:55:55.946Z,0.65
2024-03-26T09:56:56.036Z,0.67
2024-03-26T09:57:56.069Z,0.67
2024-03-26T09:58:56.124Z,0.65
2024-03-26T09:59:56.178Z,0.66
2024-03-26T10:00:56.204Z,0.66
2024-03-26T10:01:56.247Z,0.62
2024-03-26T10:02:56.325Z,0.63
2024-03-26T10:03:56.357Z,0.64
2024-03-26T10:04:56.411Z,0.62
2024-03-26T10:05:56.514Z,0.64
2024-03-26T10:06:56.526Z,0.64
2024-03-26T10:07:56.556Z,0.64
2024-03-26T10:08:56.631Z,0.63
2024-03-26T10:09:56.655Z,0.65
2024-03-26T10:10:56.714Z,0.64
2024-03-26T10:11:56.772Z,0.65
2024-03-26T10:12:56.830Z,0.64
2024-03-26T10:13:56.882Z,0.64
2024-03-26T10:14:56.950Z,0.65
2024-03-26T10:15:56.975Z,0.65
2024-03-26T10:16:57.005Z,0.64
2024-03-26T10:17:57.079Z,0.66
2024-03-26T10:18:57.134Z,0.65
2024-03-26T10:19:57.166Z,0.66
2024-03-26T10:20:57.249Z,0.65
2024-03-26T10:21:57.296Z,0.65
2024-03-26T10:22:57.352Z,0.64
2024-03-26T10:23:57.437Z,0.65
2024-03-26T10:24:57.473Z,0.65
2024-03-26T10:25:57.528Z,0.65
2024-03-26T10:26:57.565Z,0.63
2024-03-26T10:27:57.588Z,0.65
2024-03-26T10:28:57.652Z,0.63
2024-03-26T10:29:57.770Z,0.66
2024-03-26T10:30:57.717Z,0.64
2024-03-26T10:31:57.776Z,0.64
2024-03-26T10:32:57.841Z,0.65
2024-03-26T10:33:57.836Z,0.65
2024-03-26T10:34:57.906Z,0.63
2024-03-26T10:35:57.959Z,0.62
2024-03-26T10:36:57.994Z,0.63
2024-03-26T10:38:01.564Z,0.64
2024-03-26T10:39:03.565Z,0.64
2024-03-26T10:39:59.034Z,0.64
2024-03-26T10:40:58.622Z,0.64
2024-03-26T10:41:58.080Z,0.64
2024-03-26T10:42:58.106Z,0.63
2024-03-26T10:43:58.073Z,0.63
2024-03-26T10:44:58.051Z,0.62
2024-03-26T10:46:03.543Z,0.61
2024-03-26T10:46:59.048Z,0.61
2024-03-26T10:47:58.046Z,0.61
2024-03-26T10:49:01.556Z,0.61
2024-03-26T10:49:58.057Z,0.61
2024-03-26T10:50:58.192Z,0.61
2024-03-26T10:51:58.076Z,0.61
2024-03-26T10:52:58.023Z,0.60
2024-03-26T10:53:58.112Z,0.60
2024-03-26T10:54:58.041Z,0.59
2024-03-26T10:55:58.148Z,0.58
2024-03-26T10:56:58.075Z,0.59
2024-03-26T10:57:58.114Z,0.59
2024-03-26T10:58:58.064Z,0.58
2024-03-26T10:59:58.121Z,0.59
2024-03-26T11:00:58.089Z,0.58
2024-03-26T11:01:58.199Z,0.59
2024-03-26T11:02:58.137Z,0.57
2024-03-26T11:03:58.095Z,0.58
2024-03-26T11:04:58.045Z,0.58
2024-03-26T11:05:58.068Z,0.58
2024-03-26T11:06:58.058Z,0.58
2024-03-26T11:07:58.073Z,0.57
2024-03-26T11:08:58.093Z,0.57
2024-03-26T11:09:58.041Z,0.57
2024-03-26T11:10:58.153Z,0.57
2024-03-26T11:11:58.055Z,0.57
2024-03-26T11:12:58.061Z,0.56
2024-03-26T11:13:58.070Z,0.55
2024-03-26T11:14:58.073Z,0.57
2024-03-26T11:15:58.077Z,0.57
2024-03-26T11:16:58.065Z,0.58
2024-03-26T11:17:58.092Z,0.57
2024-03-26T11:18:58.165Z,0.56
2024-03-26T11:19:58.113Z,0.56
2024-03-26T11:20:58.086Z,0.56
2024-03-26T11:21:58.089Z,0.56
2024-03-26T11:22:58.058Z,0.56
2024-03-26T11:23:58.073Z,0.56
2024-03-26T11:24:58.142Z,0.57
2024-03-26T11:25:58.087Z,0.57
2024-03-26T11:26:58.088Z,0.58
2024-03-26T11:27:58.070Z,0.57
2024-03-26T11:28:58.076Z,0.58
2024-03-26T11:29:58.116Z,0.58
2024-03-26T11:30:58.119Z,0.58
2024-03-26T11:31:58.139Z,0.59
2024-03-26T11:32:58.098Z,0.60
2024-03-26T11:33:58.074Z,0.61
2024-03-26T11:34:58.082Z,0.60
2024-03-26T11:35:58.132Z,0.61
2024-03-26T11:36:58.185Z,0.62
2024-03-26T11:38:00.413Z,0.62
2024-03-26T11:38:58.128Z,0.62
2024-03-26T11:39:58.079Z,0.63
2024-03-26T11:40:58.093Z,0.64
2024-03-26T11:41:58.103Z,0.65
2024-03-26T11:42:58.118Z,0.68
2024-03-26T11:43:58.106Z,0.67
2024-03-26T11:44:58.140Z,0.67
2024-03-26T11:45:58.092Z,0.67
2024-03-26T11:46:58.088Z,0.69
2024-03-26T11:47:58.128Z,0.69
2024-03-26T11:48:58.207Z,0.68
2024-03-26T11:49:58.149Z,0.70
2024-03-26T11:50:58.112Z,0.70
2024-03-26T11:51:58.119Z,0.70
2024-03-26T11:52:58.102Z,0.70
2024-03-26T11:53:58.131Z,0.71
2024-03-26T11:54:58.126Z,0.72
2024-03-26T11:55:58.124Z,0.72
2024-03-26T11:56:58.133Z,0.73
2024-03-26T11:57:58.132Z,0.74
2024-03-26T11:58:58.118Z,0.72
2024-03-26T11:59:58.230Z,0.75
2024-03-26T12:00:58.129Z,0.74
2024-03-26T12:01:58.130Z,0.76
2024-03-26T12:02:58.143Z,0.75
2024-03-26T12:03:58.162Z,0.77
2024-03-26T12:04:58.115Z,0.76
2024-03-26T12:05:58.160Z,0.77
2024-03-26T12:06:58.142Z,0.75
2024-03-26T12:07:58.122Z,0.77
2024-03-26T12:08:58.200Z,0.77
2024-03-26T12:09:58.177Z,0.77
2024-03-26T12:10:58.151Z,0.79
2024-03-26T12:11:58.126Z,0.79
2024-03-26T12:12:58.140Z,0.78
2024-03-26T12:13:58.148Z,0.79
2024-03-26T12:14:58.155Z,0.80
2024-03-26T12:15:58.200Z,0.79
2024-03-26T12:16:58.139Z,0.79
2024-03-26T12:17:58.143Z,0.80
2024-03-26T12:18:58.142Z,0.82
2024-03-26T12:19:58.156Z,0.79
2024-03-26T12:20:58.176Z,0.81
2024-03-26T12:21:58.164Z,0.81
2024-03-26T12:22:58.175Z,0.81
2024-03-26T12:23:58.193Z,0.81
2024-03-26T12:24:58.152Z,0.81
2024-03-26T12:25:58.163Z,0.80
2024-03-26T12:26:58.163Z,0.82
2024-03-26T12:27:58.158Z,0.81
2024-03-26T12:28:58.158Z,0.81
2024-03-26T12:29:58.183Z,0.82
2024-03-26T12:30:58.176Z,0.80
2024-03-26T12:31:58.192Z,0.81
2024-03-26T12:32:58.190Z,0.83
2024-03-26T12:33:58.170Z,0.82
2024-03-26T12:34:58.184Z,0.83
2024-03-26T12:35:58.184Z,0.85
2024-03-26T12:36:58.180Z,0.83
2024-03-26T12:37:58.183Z,0.82
2024-03-26T12:38:58.176Z,0.83
2024-03-26T12:39:58.196Z,0.82
2024-03-26T12:40:58.186Z,0.84
2024-03-26T12:41:58.195Z,0.84
2024-03-26T12:42:58.175Z,0.83
2024-03-26T12:43:58.203Z,0.84
2024-03-26T12:44:58.280Z,0.85
2024-03-26T12:45:58.188Z,0.84
2024-03-26T12:46:58.203Z,0.82
2024-03-26T12:47:58.204Z,0.81
2024-03-26T12:48:58.272Z,0.83
2024-03-26T12:49:59.566Z,0.81
2024-03-26T12:50:58.319Z,0.82
2024-03-26T12:51:58.337Z,0.80
2024-03-26T12:52:58.342Z,0.80
2024-03-26T12:53:58.350Z,0.79
2024-03-26T12:54:58.401Z,0.79
2024-03-26T12:55:58.402Z,0.78
2024-03-26T12:56:58.358Z,0.79
2024-03-26T12:57:58.381Z,0.79
2024-03-26T12:58:58.419Z,0.76
2024-03-26T12:59:58.395Z,0.77
2024-03-26T13:00:58.369Z,0.77
2024-03-26T13:01:58.445Z,0.77
2024-03-26T13:02:58.411Z,0.76
2024-03-26T13:03:58.411Z,0.74
2024-03-26T13:04:58.433Z,0.75
2024-03-26T13:05:58.435Z,0.72
2024-03-26T13:06:58.413Z,0.73
2024-03-26T13:07:59.187Z,0.74
2024-03-26T13:08:58.429Z,0.72
2024-03-26T13:09:58.435Z,0.72
2024-03-26T13:10:58.452Z,0.73
2024-03-26T13:11:58.448Z,0.72
2024-03-26T13:12:58.453Z,0.70
2024-03-26T13:13:58.494Z,0.70
2024-03-26T13:14:58.460Z,0.72
2024-03-26T13:15:58.504Z,0.70
2024-03-26T13:16:58.476Z,0.70
2024-03-26T13:17:58.478Z,0.69
2024-03-26T13:18:58.497Z,0.70
2024-03-26T13:19:58.536Z,0.70